sensor_id;sensor_type;location;lat;lon;timestamp;P1;durP1;ratioP1;P2;durP2;ratioP2
81135;SDS011;70622;50.886;3.890;2023-06-10T00:01:36;8.75;;;7.72;;
81135;SDS011;70622;50.886;3.890;2023-06-10T00:04:02;9.25;;;8.07;;
81135;SDS011;70622;50.886;3.890;2023-06-10T00:06:27;8.93;;;7.38;;
81135;SDS011;70622;50.886;3.890;2023-06-10T00:09:04;11.77;;;7.30;;
81135;SDS011;70622;50.886;3.890;2023-06-10T00:11:31;8.68;;;7.75;;
81135;SDS011;70622;50.886;3.890;2023-06-10T00:13:57;10.30;;;8.60;;
81135;SDS011;70622;50.886;3.890;2023-06-10T00:16:23;11.18;;;8.00;;
81135;SDS011;70622;50.886;3.890;2023-06-10T00:18:50;9.52;;;7.90;;
81135;SDS011;70622;50.886;3.890;2023-06-10T00:21:21;9.50;;;8.00;;
81135;SDS011;70622;50.886;3.890;2023-06-10T00:23:47;9.25;;;8.32;;
81135;SDS011;70622;50.886;3.890;2023-06-10T00:26:13;12.40;;;7.97;;
81135;SDS011;70622;50.886;3.890;2023-06-10T00:28:39;9.95;;;8.02;;
81135;SDS011;70622;50.886;3.890;2023-06-10T00:31:05;8.80;;;7.88;;
81135;SDS011;70622;50.886;3.890;2023-06-10T00:33:31;9.77;;;7.97;;
81135;SDS011;70622;50.886;3.890;2023-06-10T00:35:56;10.27;;;8.57;;
81135;SDS011;70622;50.886;3.890;2023-06-10T00:38:22;9.65;;;8.68;;
81135;SDS011;70622;50.886;3.890;2023-06-10T00:40:48;10.30;;;8.23;;
81135;SDS011;70622;50.886;3.890;2023-06-10T00:43:14;10.35;;;8.43;;
81135;SDS011;70622;50.886;3.890;2023-06-10T00:45:40;13.02;;;8.93;;
81135;SDS011;70622;50.886;3.890;2023-06-10T00:48:05;9.88;;;8.35;;
81135;SDS011;70622;50.886;3.890;2023-06-10T00:50:32;11.98;;;8.40;;
81135;SDS011;70622;50.886;3.890;2023-06-10T00:52:58;11.00;;;8.70;;
81135;SDS011;70622;50.886;3.890;2023-06-10T00:55:24;9.40;;;8.48;;
81135;SDS011;70622;50.886;3.890;2023-06-10T00:57:52;10.18;;;8.85;;
81135;SDS011;70622;50.886;3.890;2023-06-10T01:00:19;9.85;;;8.35;;
81135;SDS011;70622;50.886;3.890;2023-06-10T01:02:45;10.60;;;8.48;;
81135;SDS011;70622;50.886;3.890;2023-06-10T01:05:14;10.07;;;8.40;;
81135;SDS011;70622;50.886;3.890;2023-06-10T01:07:43;10.27;;;8.32;;
81135;SDS011;70622;50.886;3.890;2023-06-10T01:13:30;11.30;;;8.55;;
81135;SDS011;70622;50.886;3.890;2023-06-10T01:15:58;11.63;;;8.38;;
81135;SDS011;70622;50.886;3.890;2023-06-10T01:18:29;9.90;;;8.95;;
81135;SDS011;70622;50.886;3.890;2023-06-10T01:20:56;12.43;;;8.95;;
81135;SDS011;70622;50.886;3.890;2023-06-10T01:23:22;13.18;;;9.20;;
81135;SDS011;70622;50.886;3.890;2023-06-10T01:31:30;12.05;;;9.20;;
81135;SDS011;70622;50.886;3.890;2023-06-10T01:34:12;9.67;;;8.67;;
81135;SDS011;70622;50.886;3.890;2023-06-10T01:36:41;10.15;;;8.63;;
81135;SDS011;70622;50.886;3.890;2023-06-10T01:39:11;12.02;;;9.23;;
81135;SDS011;70622;50.886;3.890;2023-06-10T01:41:38;10.93;;;8.88;;
81135;SDS011;70622;50.886;3.890;2023-06-10T01:44:04;11.82;;;9.48;;
81135;SDS011;70622;50.886;3.890;2023-06-10T01:46:30;11.52;;;9.05;;
81135;SDS011;70622;50.886;3.890;2023-06-10T01:48:56;11.30;;;9.35;;
81135;SDS011;70622;50.886;3.890;2023-06-10T01:51:22;10.38;;;9.30;;
81135;SDS011;70622;50.886;3.890;2023-06-10T01:53:47;11.95;;;9.32;;
81135;SDS011;70622;50.886;3.890;2023-06-10T01:56:13;10.13;;;8.63;;
81135;SDS011;70622;50.886;3.890;2023-06-10T01:58:42;9.82;;;8.65;;
81135;SDS011;70622;50.886;3.890;2023-06-10T02:01:10;11.00;;;9.18;;
81135;SDS011;70622;50.886;3.890;2023-06-10T02:03:36;12.23;;;9.27;;
81135;SDS011;70622;50.886;3.890;2023-06-10T02:06:01;15.70;;;9.65;;
81135;SDS011;70622;50.886;3.890;2023-06-10T02:08:27;12.57;;;9.25;;
81135;SDS011;70622;50.886;3.890;2023-06-10T02:10:53;10.13;;;8.80;;
81135;SDS011;70622;50.886;3.890;2023-06-10T02:13:19;10.07;;;9.07;;
81135;SDS011;70622;50.886;3.890;2023-06-10T02:15:44;10.57;;;9.48;;
81135;SDS011;70622;50.886;3.890;2023-06-10T02:18:10;8.88;;;7.90;;
81135;SDS011;70622;50.886;3.890;2023-06-10T02:20:37;11.52;;;9.43;;
81135;SDS011;70622;50.886;3.890;2023-06-10T02:23:03;13.40;;;9.43;;
81135;SDS011;70622;50.886;3.890;2023-06-10T02:25:29;11.45;;;9.27;;
81135;SDS011;70622;50.886;3.890;2023-06-10T02:27:54;10.52;;;8.93;;
81135;SDS011;70622;50.886;3.890;2023-06-10T02:30:20;11.80;;;9.60;;
81135;SDS011;70622;50.886;3.890;2023-06-10T02:32:46;10.65;;;9.65;;
81135;SDS011;70622;50.886;3.890;2023-06-10T02:35:13;10.23;;;9.02;;
81135;SDS011;70622;50.886;3.890;2023-06-10T02:37:39;9.98;;;8.85;;
81135;SDS011;70622;50.886;3.890;2023-06-10T02:40:06;10.13;;;9.13;;
81135;SDS011;70622;50.886;3.890;2023-06-10T02:42:32;12.68;;;9.90;;
81135;SDS011;70622;50.886;3.890;2023-06-10T02:44:58;13.75;;;10.55;;
81135;SDS011;70622;50.886;3.890;2023-06-10T02:47:24;11.95;;;9.23;;
81135;SDS011;70622;50.886;3.890;2023-06-10T02:49:49;10.75;;;9.65;;
81135;SDS011;70622;50.886;3.890;2023-06-10T02:52:15;10.63;;;9.10;;
81135;SDS011;70622;50.886;3.890;2023-06-10T02:54:41;10.82;;;9.55;;
81135;SDS011;70622;50.886;3.890;2023-06-10T02:57:06;14.63;;;10.13;;
81135;SDS011;70622;50.886;3.890;2023-06-10T02:59:32;11.98;;;10.27;;
81135;SDS011;70622;50.886;3.890;2023-06-10T03:01:58;13.57;;;9.80;;
81135;SDS011;70622;50.886;3.890;2023-06-10T03:04:26;10.38;;;9.27;;
81135;SDS011;70622;50.886;3.890;2023-06-10T03:06:54;11.15;;;9.98;;
81135;SDS011;70622;50.886;3.890;2023-06-10T03:09:20;13.35;;;10.20;;
81135;SDS011;70622;50.886;3.890;2023-06-10T03:11:46;12.50;;;10.13;;
81135;SDS011;70622;50.886;3.890;2023-06-10T03:14:11;11.95;;;9.85;;
81135;SDS011;70622;50.886;3.890;2023-06-10T03:16:37;11.82;;;10.00;;
81135;SDS011;70622;50.886;3.890;2023-06-10T03:19:07;11.60;;;9.77;;
81135;SDS011;70622;50.886;3.890;2023-06-10T03:21:34;13.63;;;10.38;;
81135;SDS011;70622;50.886;3.890;2023-06-10T03:24:00;12.15;;;10.23;;
81135;SDS011;70622;50.886;3.890;2023-06-10T03:26:26;15.25;;;10.35;;
81135;SDS011;70622;50.886;3.890;2023-06-10T03:28:52;10.68;;;9.55;;
81135;SDS011;70622;50.886;3.890;2023-06-10T03:31:18;11.77;;;10.15;;
81135;SDS011;70622;50.886;3.890;2023-06-10T03:33:44;13.63;;;10.90;;
81135;SDS011;70622;50.886;3.890;2023-06-10T03:36:10;11.40;;;10.20;;
81135;SDS011;70622;50.886;3.890;2023-06-10T03:38:36;12.48;;;10.50;;
81135;SDS011;70622;50.886;3.890;2023-06-10T03:41:01;14.73;;;10.35;;
81135;SDS011;70622;50.886;3.890;2023-06-10T03:43:27;13.98;;;9.95;;
81135;SDS011;70622;50.886;3.890;2023-06-10T03:45:53;11.23;;;9.73;;
81135;SDS011;70622;50.886;3.890;2023-06-10T03:48:19;12.55;;;10.55;;
81135;SDS011;70622;50.886;3.890;2023-06-10T03:50:44;12.68;;;9.63;;
81135;SDS011;70622;50.886;3.890;2023-06-10T03:53:12;11.77;;;9.88;;
81135;SDS011;70622;50.886;3.890;2023-06-10T03:55:38;12.38;;;10.45;;
81135;SDS011;70622;50.886;3.890;2023-06-10T03:58:03;13.70;;;10.73;;
81135;SDS011;70622;50.886;3.890;2023-06-10T04:00:29;11.85;;;9.48;;
81135;SDS011;70622;50.886;3.890;2023-06-10T04:02:55;11.05;;;9.70;;
81135;SDS011;70622;50.886;3.890;2023-06-10T04:05:23;12.40;;;10.18;;
81135;SDS011;70622;50.886;3.890;2023-06-10T04:07:48;17.58;;;10.55;;
81135;SDS011;70622;50.886;3.890;2023-06-10T04:10:14;14.27;;;10.10;;
81135;SDS011;70622;50.886;3.890;2023-06-10T04:12:41;14.65;;;10.13;;
81135;SDS011;70622;50.886;3.890;2023-06-10T04:15:07;11.32;;;10.10;;
81135;SDS011;70622;50.886;3.890;2023-06-10T04:17:33;11.60;;;9.65;;
81135;SDS011;70622;50.886;3.890;2023-06-10T04:19:59;14.20;;;10.52;;
81135;SDS011;70622;50.886;3.890;2023-06-10T04:22:25;17.00;;;10.77;;
81135;SDS011;70622;50.886;3.890;2023-06-10T04:24:52;11.10;;;9.93;;
81135;SDS011;70622;50.886;3.890;2023-06-10T04:27:17;12.93;;;10.43;;
81135;SDS011;70622;50.886;3.890;2023-06-10T04:29:43;12.05;;;10.48;;
81135;SDS011;70622;50.886;3.890;2023-06-10T04:32:09;12.15;;;10.30;;
81135;SDS011;70622;50.886;3.890;2023-06-10T04:34:35;11.93;;;10.18;;
81135;SDS011;70622;50.886;3.890;2023-06-10T04:37:04;12.18;;;10.77;;
81135;SDS011;70622;50.886;3.890;2023-06-10T04:39:30;11.82;;;10.25;;
81135;SDS011;70622;50.886;3.890;2023-06-10T04:41:55;11.73;;;10.07;;
81135;SDS011;70622;50.886;3.890;2023-06-10T04:44:21;12.27;;;10.98;;
81135;SDS011;70622;50.886;3.890;2023-06-10T04:46:47;13.73;;;10.52;;
81135;SDS011;70622;50.886;3.890;2023-06-10T04:49:13;12.43;;;10.45;;
81135;SDS011;70622;50.886;3.890;2023-06-10T04:51:41;14.00;;;10.20;;
81135;SDS011;70622;50.886;3.890;2023-06-10T04:54:07;14.95;;;10.05;;
81135;SDS011;70622;50.886;3.890;2023-06-10T04:56:33;11.98;;;10.70;;
81135;SDS011;70622;50.886;3.890;2023-06-10T04:58:59;11.98;;;10.68;;
81135;SDS011;70622;50.886;3.890;2023-06-10T05:01:25;12.30;;;10.77;;
81135;SDS011;70622;50.886;3.890;2023-06-10T05:03:51;14.55;;;10.93;;
81135;SDS011;70622;50.886;3.890;2023-06-10T05:06:17;11.88;;;10.57;;
81135;SDS011;70622;50.886;3.890;2023-06-10T05:08:42;12.50;;;10.80;;
81135;SDS011;70622;50.886;3.890;2023-06-10T05:11:08;14.25;;;10.70;;
81135;SDS011;70622;50.886;3.890;2023-06-10T05:13:34;13.52;;;10.23;;
81135;SDS011;70622;50.886;3.890;2023-06-10T05:16:00;15.55;;;10.57;;
81135;SDS011;70622;50.886;3.890;2023-06-10T05:18:26;12.20;;;10.95;;
81135;SDS011;70622;50.886;3.890;2023-06-10T05:20:52;13.23;;;11.25;;
81135;SDS011;70622;50.886;3.890;2023-06-10T05:23:19;14.57;;;10.93;;
81135;SDS011;70622;50.886;3.890;2023-06-10T05:25:45;13.02;;;10.55;;
81135;SDS011;70622;50.886;3.890;2023-06-10T05:28:11;12.50;;;11.20;;
81135;SDS011;70622;50.886;3.890;2023-06-10T05:30:36;11.98;;;10.75;;
81135;SDS011;70622;50.886;3.890;2023-06-10T05:33:03;12.23;;;10.93;;
81135;SDS011;70622;50.886;3.890;2023-06-10T05:35:29;13.75;;;10.38;;
81135;SDS011;70622;50.886;3.890;2023-06-10T05:37:55;13.93;;;11.38;;
81135;SDS011;70622;50.886;3.890;2023-06-10T05:40:20;15.13;;;11.32;;
81135;SDS011;70622;50.886;3.890;2023-06-10T05:42:46;16.55;;;11.23;;
81135;SDS011;70622;50.886;3.890;2023-06-10T05:45:12;14.85;;;11.35;;
81135;SDS011;70622;50.886;3.890;2023-06-10T05:47:37;12.80;;;11.45;;
81135;SDS011;70622;50.886;3.890;2023-06-10T05:50:05;13.75;;;11.57;;
81135;SDS011;70622;50.886;3.890;2023-06-10T05:55:04;15.95;;;11.48;;
81135;SDS011;70622;50.886;3.890;2023-06-10T05:57:30;14.00;;;10.63;;
81135;SDS011;70622;50.886;3.890;2023-06-10T05:59:55;13.23;;;11.00;;
81135;SDS011;70622;50.886;3.890;2023-06-10T06:02:21;11.45;;;10.00;;
81135;SDS011;70622;50.886;3.890;2023-06-10T06:04:47;13.15;;;10.93;;
81135;SDS011;70622;50.886;3.890;2023-06-10T06:07:12;14.52;;;11.20;;
81135;SDS011;70622;50.886;3.890;2023-06-10T06:09:39;13.90;;;12.02;;
81135;SDS011;70622;50.886;3.890;2023-06-10T06:12:05;11.57;;;10.38;;
81135;SDS011;70622;50.886;3.890;2023-06-10T06:14:32;12.52;;;10.43;;
81135;SDS011;70622;50.886;3.890;2023-06-10T06:17:01;13.93;;;10.38;;
81135;SDS011;70622;50.886;3.890;2023-06-10T06:19:27;13.57;;;11.00;;
81135;SDS011;70622;50.886;3.890;2023-06-10T06:21:53;14.70;;;10.45;;
81135;SDS011;70622;50.886;3.890;2023-06-10T06:24:19;12.90;;;10.43;;
81135;SDS011;70622;50.886;3.890;2023-06-10T06:26:44;13.15;;;11.00;;
81135;SDS011;70622;50.886;3.890;2023-06-10T06:29:10;12.52;;;9.85;;
81135;SDS011;70622;50.886;3.890;2023-06-10T06:31:36;14.23;;;10.45;;
81135;SDS011;70622;50.886;3.890;2023-06-10T06:34:02;11.57;;;10.38;;
81135;SDS011;70622;50.886;3.890;2023-06-10T06:36:27;12.82;;;10.50;;
81135;SDS011;70622;50.886;3.890;2023-06-10T06:38:53;13.25;;;11.50;;
81135;SDS011;70622;50.886;3.890;2023-06-10T06:41:19;12.05;;;10.80;;
81135;SDS011;70622;50.886;3.890;2023-06-10T06:43:46;11.88;;;10.68;;
81135;SDS011;70622;50.886;3.890;2023-06-10T06:46:12;12.07;;;9.55;;
81135;SDS011;70622;50.886;3.890;2023-06-10T06:48:38;13.05;;;10.95;;
81135;SDS011;70622;50.886;3.890;2023-06-10T06:51:04;13.82;;;10.75;;
81135;SDS011;70622;50.886;3.890;2023-06-10T06:53:30;14.13;;;10.48;;
81135;SDS011;70622;50.886;3.890;2023-06-10T06:55:56;12.90;;;10.35;;
81135;SDS011;70622;50.886;3.890;2023-06-10T06:58:21;14.98;;;10.27;;
81135;SDS011;70622;50.886;3.890;2023-06-10T07:00:47;11.60;;;9.98;;
81135;SDS011;70622;50.886;3.890;2023-06-10T07:03:13;14.45;;;10.40;;
81135;SDS011;70622;50.886;3.890;2023-06-10T07:05:38;12.05;;;10.20;;
81135;SDS011;70622;50.886;3.890;2023-06-10T07:08:04;12.38;;;9.80;;
81135;SDS011;70622;50.886;3.890;2023-06-10T07:10:30;11.95;;;10.40;;
81135;SDS011;70622;50.886;3.890;2023-06-10T07:12:56;10.68;;;9.57;;
81135;SDS011;70622;50.886;3.890;2023-06-10T07:15:21;16.77;;;10.20;;
81135;SDS011;70622;50.886;3.890;2023-06-10T07:17:47;16.50;;;9.80;;
81135;SDS011;70622;50.886;3.890;2023-06-10T07:20:13;11.35;;;9.57;;
81135;SDS011;70622;50.886;3.890;2023-06-10T07:22:40;10.52;;;9.30;;
81135;SDS011;70622;50.886;3.890;2023-06-10T07:25:07;10.57;;;9.45;;
81135;SDS011;70622;50.886;3.890;2023-06-10T07:27:32;12.98;;;9.68;;
81135;SDS011;70622;50.886;3.890;2023-06-10T07:29:58;11.88;;;9.80;;
81135;SDS011;70622;50.886;3.890;2023-06-10T07:32:26;16.05;;;9.63;;
81135;SDS011;70622;50.886;3.890;2023-06-10T07:34:51;11.38;;;9.40;;
81135;SDS011;70622;50.886;3.890;2023-06-10T07:37:17;11.50;;;9.98;;
81135;SDS011;70622;50.886;3.890;2023-06-10T07:39:44;11.63;;;9.63;;
81135;SDS011;70622;50.886;3.890;2023-06-10T07:42:10;10.50;;;8.85;;
81135;SDS011;70622;50.886;3.890;2023-06-10T07:44:36;11.57;;;9.30;;
81135;SDS011;70622;50.886;3.890;2023-06-10T07:47:01;9.27;;;8.25;;
81135;SDS011;70622;50.886;3.890;2023-06-10T07:49:28;12.35;;;8.82;;
81135;SDS011;70622;50.886;3.890;2023-06-10T07:51:54;11.07;;;8.68;;
81135;SDS011;70622;50.886;3.890;2023-06-10T07:54:20;16.50;;;9.20;;
81135;SDS011;70622;50.886;3.890;2023-06-10T07:56:46;10.93;;;8.68;;
81135;SDS011;70622;50.886;3.890;2023-06-10T07:59:13;11.50;;;8.80;;
81135;SDS011;70622;50.886;3.890;2023-06-10T08:01:39;11.38;;;8.57;;
81135;SDS011;70622;50.886;3.890;2023-06-10T08:04:05;9.10;;;8.15;;
81135;SDS011;70622;50.886;3.890;2023-06-10T08:06:31;9.95;;;8.02;;
81135;SDS011;70622;50.886;3.890;2023-06-10T08:08:57;10.07;;;8.23;;
81135;SDS011;70622;50.886;3.890;2023-06-10T08:11:23;8.93;;;7.60;;
81135;SDS011;70622;50.886;3.890;2023-06-10T08:13:49;12.45;;;8.57;;
81135;SDS011;70622;50.886;3.890;2023-06-10T08:16:14;12.63;;;8.40;;
81135;SDS011;70622;50.886;3.890;2023-06-10T08:18:41;9.07;;;7.30;;
81135;SDS011;70622;50.886;3.890;2023-06-10T08:21:07;8.80;;;7.53;;
81135;SDS011;70622;50.886;3.890;2023-06-10T08:23:32;10.65;;;7.78;;
81135;SDS011;70622;50.886;3.890;2023-06-10T08:25:58;9.48;;;7.65;;
81135;SDS011;70622;50.886;3.890;2023-06-10T08:28:24;9.85;;;7.63;;
81135;SDS011;70622;50.886;3.890;2023-06-10T08:30:49;8.40;;;7.60;;
81135;SDS011;70622;50.886;3.890;2023-06-10T08:33:15;9.25;;;7.70;;
81135;SDS011;70622;50.886;3.890;2023-06-10T08:35:41;8.02;;;7.18;;
81135;SDS011;70622;50.886;3.890;2023-06-10T08:38:06;7.30;;;6.43;;
81135;SDS011;70622;50.886;3.890;2023-06-10T08:40:32;9.45;;;5.78;;
81135;SDS011;70622;50.886;3.890;2023-06-10T08:43:17;9.60;;;6.07;;
81135;SDS011;70622;50.886;3.890;2023-06-10T08:45:51;9.60;;;6.88;;
81135;SDS011;70622;50.886;3.890;2023-06-10T08:48:21;8.93;;;6.43;;
81135;SDS011;70622;50.886;3.890;2023-06-10T08:50:48;8.77;;;6.30;;
81135;SDS011;70622;50.886;3.890;2023-06-10T08:53:18;7.25;;;6.25;;
81135;SDS011;70622;50.886;3.890;2023-06-10T08:55:46;8.45;;;5.70;;
81135;SDS011;70622;50.886;3.890;2023-06-10T08:58:17;9.23;;;6.10;;
81135;SDS011;70622;50.886;3.890;2023-06-10T09:00:44;7.13;;;5.97;;
81135;SDS011;70622;50.886;3.890;2023-06-10T09:03:10;6.53;;;5.82;;
81135;SDS011;70622;50.886;3.890;2023-06-10T09:05:36;7.90;;;6.20;;
81135;SDS011;70622;50.886;3.890;2023-06-10T09:08:03;7.13;;;6.18;;
81135;SDS011;70622;50.886;3.890;2023-06-10T09:10:30;8.75;;;5.70;;
81135;SDS011;70622;50.886;3.890;2023-06-10T09:12:57;9.82;;;6.65;;
81135;SDS011;70622;50.886;3.890;2023-06-10T09:15:23;10.77;;;5.93;;
81135;SDS011;70622;50.886;3.890;2023-06-10T09:17:49;8.77;;;6.00;;
81135;SDS011;70622;50.886;3.890;2023-06-10T09:20:16;6.63;;;5.95;;
81135;SDS011;70622;50.886;3.890;2023-06-10T09:22:42;6.95;;;6.05;;
81135;SDS011;70622;50.886;3.890;2023-06-10T09:25:10;8.77;;;5.95;;
81135;SDS011;70622;50.886;3.890;2023-06-10T09:30:23;7.10;;;6.13;;
81135;SDS011;70622;50.886;3.890;2023-06-10T09:32:53;7.30;;;6.07;;
81135;SDS011;70622;50.886;3.890;2023-06-10T09:35:28;7.65;;;6.45;;
81135;SDS011;70622;50.886;3.890;2023-06-10T09:37:57;10.23;;;6.50;;
81135;SDS011;70622;50.886;3.890;2023-06-10T09:40:23;9.00;;;6.78;;
81135;SDS011;70622;50.886;3.890;2023-06-10T09:42:52;8.70;;;7.00;;
81135;SDS011;70622;50.886;3.890;2023-06-10T09:45:23;13.68;;;6.97;;
81135;SDS011;70622;50.886;3.890;2023-06-10T09:50:18;9.20;;;6.40;;
81135;SDS011;70622;50.886;3.890;2023-06-10T09:52:45;7.80;;;6.90;;
81135;SDS011;70622;50.886;3.890;2023-06-10T09:55:13;8.43;;;6.63;;
81135;SDS011;70622;50.886;3.890;2023-06-10T09:57:39;8.68;;;6.45;;
81135;SDS011;70622;50.886;3.890;2023-06-10T10:00:07;7.93;;;6.55;;
81135;SDS011;70622;50.886;3.890;2023-06-10T10:02:46;8.57;;;6.47;;
81135;SDS011;70622;50.886;3.890;2023-06-10T10:05:14;10.13;;;7.00;;
81135;SDS011;70622;50.886;3.890;2023-06-10T10:07:41;8.63;;;6.65;;
81135;SDS011;70622;50.886;3.890;2023-06-10T10:10:07;9.20;;;6.45;;
81135;SDS011;70622;50.886;3.890;2023-06-10T10:12:35;8.30;;;6.53;;
81135;SDS011;70622;50.886;3.890;2023-06-10T10:15:03;12.65;;;6.97;;
81135;SDS011;70622;50.886;3.890;2023-06-10T10:17:33;7.97;;;6.80;;
81135;SDS011;70622;50.886;3.890;2023-06-10T10:20:04;7.03;;;6.37;;
81135;SDS011;70622;50.886;3.890;2023-06-10T10:22:37;7.78;;;6.40;;
81135;SDS011;70622;50.886;3.890;2023-06-10T10:25:11;9.05;;;6.75;;
81135;SDS011;70622;50.886;3.890;2023-06-10T10:27:44;6.88;;;6.18;;
81135;SDS011;70622;50.886;3.890;2023-06-10T10:30:14;10.00;;;6.75;;
81135;SDS011;70622;50.886;3.890;2023-06-10T10:32:58;8.25;;;6.75;;
81135;SDS011;70622;50.886;3.890;2023-06-10T10:35:30;6.88;;;6.25;;
81135;SDS011;70622;50.886;3.890;2023-06-10T10:37:58;7.90;;;6.78;;
81135;SDS011;70622;50.886;3.890;2023-06-10T10:40:24;6.35;;;5.75;;
81135;SDS011;70622;50.886;3.890;2023-06-10T10:42:55;8.63;;;6.50;;
81135;SDS011;70622;50.886;3.890;2023-06-10T10:45:22;22.13;;;7.07;;
81135;SDS011;70622;50.886;3.890;2023-06-10T10:47:51;7.82;;;6.45;;
81135;SDS011;70622;50.886;3.890;2023-06-10T10:50:19;9.18;;;5.97;;
81135;SDS011;70622;50.886;3.890;2023-06-10T10:52:53;10.25;;;6.15;;
81135;SDS011;70622;50.886;3.890;2023-06-10T10:55:21;8.70;;;6.72;;
81135;SDS011;70622;50.886;3.890;2023-06-10T11:00:34;6.60;;;5.90;;
81135;SDS011;70622;50.886;3.890;2023-06-10T11:05:44;7.13;;;6.13;;
81135;SDS011;70622;50.886;3.890;2023-06-10T11:08:15;6.60;;;5.63;;
81135;SDS011;70622;50.886;3.890;2023-06-10T11:11:01;7.97;;;5.93;;
81135;SDS011;70622;50.886;3.890;2023-06-10T11:16:41;6.70;;;6.00;;
81135;SDS011;70622;50.886;3.890;2023-06-10T11:19:08;6.93;;;6.22;;
81135;SDS011;70622;50.886;3.890;2023-06-10T11:21:56;7.88;;;6.53;;
81135;SDS011;70622;50.886;3.890;2023-06-10T11:24:24;9.07;;;6.03;;
81135;SDS011;70622;50.886;3.890;2023-06-10T11:26:51;7.93;;;6.05;;
81135;SDS011;70622;50.886;3.890;2023-06-10T11:29:17;7.60;;;5.32;;
81135;SDS011;70622;50.886;3.890;2023-06-10T11:31:43;7.32;;;5.80;;
81135;SDS011;70622;50.886;3.890;2023-06-10T11:34:11;6.50;;;5.65;;
81135;SDS011;70622;50.886;3.890;2023-06-10T11:36:38;7.43;;;5.60;;
81135;SDS011;70622;50.886;3.890;2023-06-10T11:39:05;7.28;;;5.75;;
81135;SDS011;70622;50.886;3.890;2023-06-10T11:41:32;7.03;;;5.47;;
81135;SDS011;70622;50.886;3.890;2023-06-10T11:44:09;6.82;;;5.90;;
81135;SDS011;70622;50.886;3.890;2023-06-10T11:46:44;10.73;;;5.88;;
81135;SDS011;70622;50.886;3.890;2023-06-10T11:49:10;7.68;;;5.72;;
81135;SDS011;70622;50.886;3.890;2023-06-10T11:51:37;9.13;;;5.88;;
81135;SDS011;70622;50.886;3.890;2023-06-10T11:56:34;6.57;;;5.90;;
81135;SDS011;70622;50.886;3.890;2023-06-10T12:01:37;6.15;;;5.55;;
81135;SDS011;70622;50.886;3.890;2023-06-10T12:04:10;7.10;;;5.78;;
81135;SDS011;70622;50.886;3.890;2023-06-10T12:06:44;7.28;;;5.60;;
81135;SDS011;70622;50.886;3.890;2023-06-10T12:09:28;7.85;;;5.28;;
81135;SDS011;70622;50.886;3.890;2023-06-10T12:11:58;7.38;;;5.85;;
81135;SDS011;70622;50.886;3.890;2023-06-10T12:20:24;6.82;;;5.13;;
81135;SDS011;70622;50.886;3.890;2023-06-10T12:22:50;7.07;;;5.57;;
81135;SDS011;70622;50.886;3.890;2023-06-10T12:25:16;6.13;;;5.45;;
81135;SDS011;70622;50.886;3.890;2023-06-10T12:27:52;6.15;;;5.50;;
81135;SDS011;70622;50.886;3.890;2023-06-10T12:30:29;10.77;;;5.63;;
81135;SDS011;70622;50.886;3.890;2023-06-10T12:32:56;6.95;;;5.57;;
81135;SDS011;70622;50.886;3.890;2023-06-10T12:35:23;6.70;;;5.72;;
81135;SDS011;70622;50.886;3.890;2023-06-10T12:37:57;9.45;;;5.80;;
81135;SDS011;70622;50.886;3.890;2023-06-10T12:40:26;7.30;;;5.60;;
81135;SDS011;70622;50.886;3.890;2023-06-10T12:42:54;6.25;;;5.60;;
81135;SDS011;70622;50.886;3.890;2023-06-10T12:48:09;9.60;;;5.45;;
81135;SDS011;70622;50.886;3.890;2023-06-10T12:50:50;7.28;;;5.60;;
81135;SDS011;70622;50.886;3.890;2023-06-10T12:53:18;6.82;;;5.63;;
81135;SDS011;70622;50.886;3.890;2023-06-10T12:58:40;6.88;;;5.78;;
81135;SDS011;70622;50.886;3.890;2023-06-10T13:01:06;6.85;;;6.05;;
81135;SDS011;70622;50.886;3.890;2023-06-10T13:03:32;6.38;;;5.55;;
81135;SDS011;70622;50.886;3.890;2023-06-10T13:05:57;7.10;;;6.28;;
81135;SDS011;70622;50.886;3.890;2023-06-10T13:08:23;7.22;;;5.72;;
81135;SDS011;70622;50.886;3.890;2023-06-10T13:10:50;6.95;;;5.65;;
81135;SDS011;70622;50.886;3.890;2023-06-10T13:13:16;11.77;;;6.18;;
81135;SDS011;70622;50.886;3.890;2023-06-10T13:15:42;7.68;;;5.85;;
81135;SDS011;70622;50.886;3.890;2023-06-10T13:18:08;6.35;;;5.78;;
81135;SDS011;70622;50.886;3.890;2023-06-10T13:20:33;9.20;;;6.00;;
81135;SDS011;70622;50.886;3.890;2023-06-10T13:22:59;8.48;;;5.82;;
81135;SDS011;70622;50.886;3.890;2023-06-10T13:25:25;6.78;;;6.07;;
81135;SDS011;70622;50.886;3.890;2023-06-10T13:27:50;6.63;;;5.90;;
81135;SDS011;70622;50.886;3.890;2023-06-10T13:30:16;8.25;;;6.18;;
81135;SDS011;70622;50.886;3.890;2023-06-10T13:32:42;9.60;;;6.30;;
81135;SDS011;70622;50.886;3.890;2023-06-10T13:35:07;8.20;;;5.95;;
81135;SDS011;70622;50.886;3.890;2023-06-10T13:37:36;8.43;;;6.20;;
81135;SDS011;70622;50.886;3.890;2023-06-10T13:40:02;9.18;;;5.85;;
81135;SDS011;70622;50.886;3.890;2023-06-10T13:42:28;6.72;;;5.85;;
81135;SDS011;70622;50.886;3.890;2023-06-10T13:44:54;7.70;;;5.88;;
81135;SDS011;70622;50.886;3.890;2023-06-10T13:47:21;7.97;;;5.95;;
81135;SDS011;70622;50.886;3.890;2023-06-10T13:49:47;8.68;;;5.97;;
81135;SDS011;70622;50.886;3.890;2023-06-10T13:52:13;6.30;;;5.65;;
81135;SDS011;70622;50.886;3.890;2023-06-10T13:54:38;7.20;;;5.72;;
81135;SDS011;70622;50.886;3.890;2023-06-10T13:57:04;6.50;;;5.90;;
81135;SDS011;70622;50.886;3.890;2023-06-10T13:59:31;7.00;;;5.88;;
81135;SDS011;70622;50.886;3.890;2023-06-10T14:01:56;8.88;;;6.25;;
81135;SDS011;70622;50.886;3.890;2023-06-10T14:04:22;6.72;;;5.68;;
81135;SDS011;70622;50.886;3.890;2023-06-10T14:06:48;9.55;;;5.85;;
81135;SDS011;70622;50.886;3.890;2023-06-10T14:09:14;7.15;;;5.65;;
81135;SDS011;70622;50.886;3.890;2023-06-10T14:11:39;6.78;;;5.50;;
81135;SDS011;70622;50.886;3.890;2023-06-10T14:14:05;6.85;;;4.82;;
81135;SDS011;70622;50.886;3.890;2023-06-10T14:16:31;5.70;;;5.10;;
81135;SDS011;70622;50.886;3.890;2023-06-10T14:18:57;6.03;;;4.50;;
81135;SDS011;70622;50.886;3.890;2023-06-10T14:21:23;5.30;;;4.80;;
81135;SDS011;70622;50.886;3.890;2023-06-10T14:23:48;5.32;;;4.82;;
81135;SDS011;70622;50.886;3.890;2023-06-10T14:26:16;8.05;;;4.75;;
81135;SDS011;70622;50.886;3.890;2023-06-10T14:28:42;6.18;;;4.95;;
81135;SDS011;70622;50.886;3.890;2023-06-10T14:31:07;4.82;;;4.30;;
81135;SDS011;70622;50.886;3.890;2023-06-10T14:33:36;8.57;;;5.78;;
81135;SDS011;70622;50.886;3.890;2023-06-10T14:36:02;7.07;;;5.00;;
81135;SDS011;70622;50.886;3.890;2023-06-10T14:38:28;7.50;;;4.80;;
81135;SDS011;70622;50.886;3.890;2023-06-10T14:40:53;5.65;;;5.10;;
81135;SDS011;70622;50.886;3.890;2023-06-10T14:43:19;5.13;;;4.63;;
81135;SDS011;70622;50.886;3.890;2023-06-10T14:45:45;5.68;;;4.50;;
81135;SDS011;70622;50.886;3.890;2023-06-10T14:48:10;5.90;;;4.78;;
81135;SDS011;70622;50.886;3.890;2023-06-10T14:50:37;4.85;;;4.32;;
81135;SDS011;70622;50.886;3.890;2023-06-10T14:53:05;4.97;;;4.45;;
81135;SDS011;70622;50.886;3.890;2023-06-10T14:55:31;6.15;;;4.38;;
81135;SDS011;70622;50.886;3.890;2023-06-10T14:57:56;6.43;;;4.47;;
81135;SDS011;70622;50.886;3.890;2023-06-10T15:00:23;8.00;;;4.85;;
81135;SDS011;70622;50.886;3.890;2023-06-10T15:02:50;6.45;;;4.47;;
81135;SDS011;70622;50.886;3.890;2023-06-10T15:05:16;6.55;;;5.00;;
81135;SDS011;70622;50.886;3.890;2023-06-10T15:07:44;6.73;;;4.70;;
81135;SDS011;70622;50.886;3.890;2023-06-10T15:10:10;8.95;;;5.40;;
81135;SDS011;70622;50.886;3.890;2023-06-10T15:12:36;6.18;;;4.80;;
81135;SDS011;70622;50.886;3.890;2023-06-10T15:15:02;5.22;;;4.68;;
81135;SDS011;70622;50.886;3.890;2023-06-10T15:17:28;7.47;;;4.95;;
81135;SDS011;70622;50.886;3.890;2023-06-10T15:19:54;6.85;;;5.25;;